createdAt,value
2022-11-16T00:02:07.150Z,4.33
2022-11-16T00:04:33.759Z,4.60
2022-11-16T00:07:02.818Z,4.67
2022-11-16T00:09:31.956Z,4.60
2022-11-16T00:12:04.974Z,4.73
2022-11-16T00:14:34.220Z,4.43
2022-11-16T00:17:01.943Z,4.80
2022-11-16T00:19:29.187Z,5.00
2022-11-16T00:21:55.816Z,4.70
2022-11-16T00:24:23.815Z,4.33
2022-11-16T00:26:50.607Z,4.40
2022-11-16T00:29:22.991Z,4.33
2022-11-16T00:31:50.358Z,4.60
2022-11-16T00:34:17.479Z,4.43
2022-11-16T00:36:44.144Z,4.97
2022-11-16T00:39:12.553Z,4.87
2022-11-16T00:41:39.468Z,5.27
2022-11-16T00:44:06.009Z,4.63
2022-11-16T00:46:32.324Z,5.20
2022-11-16T00:48:58.783Z,4.83
2022-11-16T00:51:25.159Z,5.13
2022-11-16T00:53:51.693Z,5.17
2022-11-16T00:56:18.142Z,4.80
2022-11-16T00:58:44.483Z,5.03
2022-11-16T01:01:11.817Z,5.10
2022-11-16T01:03:38.295Z,5.37
2022-11-16T01:06:07.259Z,5.33
2022-11-16T01:08:36.317Z,5.13
2022-11-16T01:11:22.452Z,5.30
2022-11-16T01:13:49.350Z,5.50
2022-11-16T01:16:20.730Z,5.67
2022-11-16T01:18:52.558Z,5.60
2022-11-16T01:21:19.553Z,5.67
2022-11-16T01:23:46.132Z,5.97
2022-11-16T01:26:12.675Z,6.57
2022-11-16T01:28:39.078Z,6.00
2022-11-16T01:31:05.668Z,5.53
2022-11-16T01:33:32.012Z,5.90
2022-11-16T01:35:58.347Z,5.93
2022-11-16T01:38:29.570Z,5.90
2022-11-16T01:40:56.652Z,6.17
2022-11-16T01:43:25.546Z,6.17
2022-11-16T01:45:52.373Z,5.97
2022-11-16T01:48:28.944Z,6.90
2022-11-16T01:50:57.476Z,6.10
2022-11-16T01:53:24.873Z,6.63
2022-11-16T01:55:52.179Z,6.03
2022-11-16T01:58:23.206Z,6.30
2022-11-16T02:00:49.900Z,6.80
2022-11-16T02:03:20.709Z,6.60
2022-11-16T02:06:25.038Z,7.03
2022-11-16T02:09:20.712Z,6.67
2022-11-16T02:12:08.733Z,6.43
2022-11-16T02:15:02.764Z,5.90
2022-11-16T02:17:44.067Z,6.27
2022-11-16T02:20:48.144Z,6.13
2022-11-16T02:23:23.755Z,6.63
2022-11-16T02:25:59.464Z,6.30
2022-11-16T02:28:32.235Z,5.70
2022-11-16T02:31:03.811Z,6.10
2022-11-16T02:33:40.932Z,5.70
2022-11-16T02:36:10.735Z,5.77
2022-11-16T02:38:40.719Z,5.47
2022-11-16T02:41:15.247Z,5.37
2022-11-16T02:43:45.562Z,4.77
2022-11-16T02:46:26.907Z,4.17
2022-11-16T02:48:57.762Z,4.20
2022-11-16T02:51:26.887Z,4.77
2022-11-16T02:54:08.655Z,4.50
2022-11-16T02:57:04.132Z,4.63
2022-11-16T02:59:36.680Z,5.03
2022-11-16T03:02:20.506Z,5.47
2022-11-16T03:04:50.282Z,5.23
2022-11-16T03:07:22.775Z,4.80
2022-11-16T03:09:50.919Z,5.50
2022-11-16T03:12:22.372Z,5.33
2022-11-16T03:14:54.135Z,5.30
2022-11-16T03:17:27.095Z,4.87
2022-11-16T03:20:08.970Z,4.73
2022-11-16T03:22:51.229Z,4.30
2022-11-16T03:25:20.296Z,4.40
2022-11-16T03:28:07.717Z,4.23
2022-11-16T03:30:40.632Z,3.40
2022-11-16T03:33:48.430Z,3.43
2022-11-16T03:36:14.702Z,3.20
2022-11-16T03:38:42.498Z,3.10
2022-11-16T03:41:11.075Z,3.20
2022-11-16T03:43:40.150Z,2.83
2022-11-16T03:46:06.560Z,3.17
2022-11-16T03:48:37.419Z,2.87
2022-11-16T03:51:04.625Z,2.50
2022-11-16T03:53:31.095Z,2.53
2022-11-16T03:55:57.585Z,2.40
2022-11-16T03:58:23.993Z,2.70
2022-11-16T04:00:50.377Z,2.30
2022-11-16T04:03:16.915Z,2.47
2022-11-16T04:06:01.921Z,2.33
2022-11-16T04:08:46.745Z,2.23
2022-11-16T04:11:39.278Z,2.07
2022-11-16T04:14:25.721Z,2.20
2022-11-16T04:17:10.723Z,1.90
2022-11-16T04:19:58.295Z,2.10
2022-11-16T04:22:49.717Z,1.90
2022-11-16T04:25:23.142Z,2.03
2022-11-16T04:28:08.105Z,1.90
2022-11-16T04:30:54.599Z,1.73
2022-11-16T04:33:39.955Z,1.90
2022-11-16T04:36:25.654Z,1.73
2022-11-16T04:38:51.992Z,1.77
2022-11-16T04:41:37.574Z,1.93
2022-11-16T04:44:03.999Z,1.80
2022-11-16T04:46:48.952Z,2.00
2022-11-16T04:49:15.322Z,2.07
2022-11-16T04:51:41.702Z,2.50
2022-11-16T04:54:08.215Z,2.07
2022-11-16T04:56:34.571Z,2.50
2022-11-16T04:59:00.876Z,1.70
2022-11-16T05:01:45.962Z,1.43
2022-11-16T05:04:12.484Z,1.67
2022-11-16T05:06:39.140Z,0.70
2022-11-16T05:09:05.515Z,0.70
2022-11-16T05:11:31.845Z,1.00
2022-11-16T05:13:58.191Z,0.67
2022-11-16T05:16:24.683Z,0.63
2022-11-16T05:19:10.969Z,0.90
2022-11-16T05:21:37.416Z,1.00
2022-11-16T05:24:22.247Z,1.20
2022-11-16T05:26:48.644Z,1.00
2022-11-16T05:29:15.001Z,1.30
2022-11-16T05:31:41.496Z,0.90
2022-11-16T05:34:08.927Z,0.90
2022-11-16T05:36:35.537Z,1.10
2022-11-16T05:39:02.019Z,0.97
2022-11-16T05:41:28.512Z,1.20
2022-11-16T05:43:55.726Z,1.40
2022-11-16T05:46:23.242Z,1.20
2022-11-16T05:48:50.027Z,1.20
2022-11-16T05:51:16.410Z,1.50
2022-11-16T05:53:44.197Z,1.60
2022-11-16T05:56:12.094Z,1.50
2022-11-16T05:58:38.533Z,1.53
2022-11-16T06:01:05.094Z,1.80
2022-11-16T06:03:32.135Z,2.10
2022-11-16T06:05:59.115Z,1.90
2022-11-16T06:08:25.484Z,1.50
2022-11-16T06:10:51.896Z,1.63
2022-11-16T06:13:18.241Z,2.07
2022-11-16T06:15:51.451Z,2.17
2022-11-16T06:18:17.979Z,1.90
2022-11-16T06:20:44.290Z,1.93
2022-11-16T06:23:10.704Z,2.10
2022-11-16T06:25:39.006Z,2.07
2022-11-16T06:28:08.051Z,2.50
2022-11-16T06:30:34.978Z,2.50
2022-11-16T06:33:01.327Z,2.10
2022-11-16T06:35:27.728Z,2.33
2022-11-16T06:37:54.121Z,2.20
2022-11-16T06:40:20.480Z,2.73
2022-11-16T06:42:46.996Z,2.90
2022-11-16T06:45:13.351Z,2.80
2022-11-16T06:47:39.715Z,2.70
2022-11-16T06:50:06.591Z,2.80
2022-11-16T06:52:32.951Z,2.67
2022-11-16T06:54:59.272Z,2.90
2022-11-16T06:57:25.745Z,2.80
2022-11-16T06:59:52.079Z,3.07
2022-11-16T07:02:21.265Z,2.90
2022-11-16T07:04:47.608Z,3.37
2022-11-16T07:07:15.813Z,3.27
2022-11-16T07:09:44.489Z,2.63
2022-11-16T07:12:10.863Z,2.60
2022-11-16T07:14:37.315Z,2.27
2022-11-16T07:17:09.176Z,2.33
2022-11-16T07:19:36.862Z,2.87
2022-11-16T07:22:04.212Z,2.60
2022-11-16T07:24:30.610Z,2.60
2022-11-16T07:26:57.290Z,2.47
2022-11-16T07:29:24.474Z,2.60
2022-11-16T07:31:51.047Z,2.60
2022-11-16T07:34:36.391Z,3.27
2022-11-16T07:37:40.224Z,2.67
2022-11-16T07:41:01.533Z,2.70
2022-11-16T07:43:56.787Z,2.60
2022-11-16T07:47:00.592Z,2.57
2022-11-16T07:49:26.960Z,2.53
2022-11-16T07:51:53.572Z,2.33
2022-11-16T07:54:19.855Z,2.23
2022-11-16T07:56:46.190Z,2.50
2022-11-16T07:59:12.561Z,2.20
2022-11-16T08:01:38.924Z,2.10
2022-11-16T08:04:05.545Z,2.60
2022-11-16T08:06:32.374Z,2.77
2022-11-16T08:08:59.382Z,2.67
2022-11-16T08:11:26.654Z,2.33
2022-11-16T08:13:53.092Z,2.47
2022-11-16T08:16:21.633Z,2.73
2022-11-16T08:18:48.439Z,2.40
2022-11-16T08:21:16.516Z,2.37
2022-11-16T08:23:44.841Z,2.70
2022-11-16T08:26:15.309Z,2.50
2022-11-16T08:28:43.532Z,2.10
2022-11-16T08:31:12.776Z,2.53
2022-11-16T08:33:39.348Z,2.50
2022-11-16T08:36:12.567Z,2.23
2022-11-16T08:38:43.414Z,2.40
2022-11-16T08:41:09.958Z,2.27
2022-11-16T08:43:42.022Z,2.30
2022-11-16T08:46:10.468Z,2.60
2022-11-16T08:48:37.647Z,2.43
2022-11-16T08:53:58.827Z,2.50
2022-11-16T08:56:27.229Z,2.20
2022-11-16T08:58:58.596Z,2.47
2022-11-16T09:01:27.640Z,2.43
2022-11-16T09:03:54.389Z,2.17
2022-11-16T09:06:21.686Z,2.60
2022-11-16T09:08:48.216Z,1.90
2022-11-16T09:11:18.622Z,2.10
2022-11-16T09:13:46.076Z,2.10
2022-11-16T09:16:15.748Z,2.23
2022-11-16T09:18:43.759Z,2.20
2022-11-16T09:21:10.058Z,2.00
2022-11-16T09:23:36.635Z,2.20
2022-11-16T09:26:06.542Z,1.80
2022-11-16T09:28:33.817Z,2.03
2022-11-16T09:31:02.784Z,1.50
2022-11-16T09:33:31.346Z,2.37
2022-11-16T09:36:02.992Z,2.10
2022-11-16T09:38:46.611Z,1.80
2022-11-16T09:44:15.277Z,2.00
2022-11-16T09:46:48.211Z,2.10
2022-11-16T09:49:43.353Z,1.80
2022-11-16T09:52:18.725Z,1.90
2022-11-16T09:54:50.137Z,2.17
2022-11-16T09:57:24.920Z,2.03
2022-11-16T09:59:57.504Z,1.67
2022-11-16T10:02:27.051Z,2.17
2022-11-16T10:05:11.863Z,1.73
2022-11-16T10:07:58.907Z,1.97
2022-11-16T10:10:37.616Z,2.07
2022-11-16T10:13:28.359Z,2.20
2022-11-16T11:04:32.516Z,1.70
2022-11-16T11:07:01.182Z,1.80
2022-11-16T11:09:36.887Z,1.90
2022-11-16T11:12:38.522Z,1.73
2022-11-16T11:15:25.823Z,1.77
2022-11-16T11:18:29.694Z,1.67
2022-11-16T11:21:07.938Z,1.67
2022-11-16T11:23:47.630Z,1.90
2022-11-16T11:26:36.306Z,2.07
2022-11-16T11:29:16.987Z,2.43
2022-11-16T11:31:46.955Z,2.00
2022-11-16T11:34:21.066Z,1.90
2022-11-16T11:36:52.640Z,1.87
2022-11-16T11:42:06.119Z,1.90
2022-11-16T11:44:50.165Z,2.00
2022-11-16T11:50:36.983Z,2.47
2022-11-16T11:53:22.491Z,1.50
2022-11-16T11:55:57.697Z,1.70
2022-11-16T11:58:31.058Z,2.00
2022-11-16T12:01:36.762Z,1.30
2022-11-16T12:04:20.860Z,1.80
2022-11-16T12:07:03.648Z,2.37
2022-11-16T12:09:48.421Z,3.57
2022-11-16T12:12:47.260Z,1.70
2022-11-16T12:15:42.514Z,1.80
2022-11-16T12:18:36.177Z,1.90
2022-11-16T12:21:13.619Z,1.77
2022-11-16T12:24:21.584Z,1.67
2022-11-16T12:27:17.937Z,1.60
2022-11-16T12:29:53.477Z,1.70
2022-11-16T12:33:02.748Z,1.37
2022-11-16T12:35:51.998Z,1.63
2022-11-16T12:38:29.869Z,1.70
2022-11-16T12:41:14.538Z,2.07
2022-11-16T12:43:56.407Z,1.50
2022-11-16T12:46:53.737Z,1.47
2022-11-16T12:49:43.214Z,1.70
2022-11-16T12:52:37.009Z,1.50
2022-11-16T12:55:26.954Z,1.40
2022-11-16T12:58:07.406Z,1.50
2022-11-16T13:00:50.795Z,1.57
2022-11-16T13:03:29.329Z,1.80
2022-11-16T13:06:12.345Z,1.53
2022-11-16T13:09:01.559Z,1.30
2022-11-16T13:11:36.283Z,1.97
2022-11-16T13:14:07.405Z,1.60
2022-11-16T13:16:34.405Z,1.63
2022-11-16T13:19:04.078Z,1.27
2022-11-16T13:21:47.787Z,1.40
2022-11-16T13:24:41.542Z,1.40
2022-11-16T13:27:27.841Z,1.50
2022-11-16T13:30:00.658Z,1.40
2022-11-16T13:32:35.803Z,1.20
2022-11-16T13:35:05.647Z,1.50
2022-11-16T13:37:37.985Z,1.37
2022-11-16T13:40:04.578Z,1.27
2022-11-16T13:42:57.460Z,1.63
2022-11-16T13:45:32.008Z,1.20
2022-11-16T13:48:01.117Z,2.00
2022-11-16T13:50:49.782Z,1.53
2022-11-16T13:56:29.315Z,1.67
2022-11-16T13:58:58.971Z,1.97
2022-11-16T14:01:26.686Z,1.40
2022-11-16T14:04:32.173Z,1.47
2022-11-16T14:06:59.734Z,1.10
2022-11-16T14:09:49.113Z,1.10
2022-11-16T14:12:38.683Z,1.50
2022-11-16T14:15:17.308Z,1.20
2022-11-16T14:17:49.799Z,1.53
2022-11-16T14:20:28.447Z,1.50
2022-11-16T14:22:54.791Z,1.53
2022-11-16T14:25:31.807Z,1.67
2022-11-16T14:28:11.842Z,1.80
2022-11-16T14:30:56.230Z,1.33
2022-11-16T14:33:35.966Z,1.63
2022-11-16T14:36:05.473Z,1.43
2022-11-16T14:38:43.079Z,1.83
2022-11-16T14:41:28.264Z,1.60
2022-11-16T14:43:56.895Z,1.43
2022-11-16T14:46:29.877Z,1.53
2022-11-16T14:48:59.235Z,1.80
2022-11-16T14:51:30.055Z,1.97
2022-11-16T14:54:01.322Z,1.90
2022-11-16T14:56:27.850Z,1.70
2022-11-16T14:59:00.297Z,1.80
2022-11-16T15:01:31.006Z,1.90
2022-11-16T15:04:04.631Z,1.40
2022-11-16T15:06:40.015Z,1.37
2022-11-16T15:09:06.679Z,1.40
2022-11-16T15:11:57.370Z,1.40
2022-11-16T15:14:31.573Z,1.37
2022-11-16T15:16:59.657Z,1.60
2022-11-16T15:19:30.130Z,1.43
2022-11-16T15:21:59.747Z,1.80
2022-11-16T15:24:35.405Z,1.43
2022-11-16T15:27:21.248Z,1.83
2022-11-16T15:29:47.730Z,1.50
2022-11-16T15:32:17.734Z,2.40
2022-11-16T15:34:52.758Z,1.70
2022-11-16T15:37:31.189Z,1.60
2022-11-16T15:39:59.887Z,1.50
2022-11-16T15:42:28.042Z,1.60
2022-11-16T15:44:55.537Z,1.80
2022-11-16T15:47:23.584Z,1.80
2022-11-16T15:49:53.087Z,1.77
2022-11-16T15:52:50.078Z,1.53
2022-11-16T15:55:35.566Z,1.70
2022-11-16T15:58:04.983Z,1.80
2022-11-16T16:00:34.827Z,2.00
2022-11-16T16:03:29.843Z,1.60
2022-11-16T16:05:56.550Z,2.23
2022-11-16T16:08:28.171Z,1.67
2022-11-16T16:11:10.712Z,1.63
2022-11-16T16:13:42.720Z,1.77
2022-11-16T16:16:29.371Z,1.80
2022-11-16T16:19:02.592Z,1.70
2022-11-16T16:21:43.823Z,2.00
2022-11-16T16:24:31.816Z,1.70
2022-11-16T16:26:58.266Z,2.10
2022-11-16T16:29:27.832Z,1.70
2022-11-16T16:31:55.946Z,1.80
2022-11-16T16:34:22.336Z,1.70
2022-11-16T16:36:48.686Z,1.80
2022-11-16T16:39:15.043Z,1.70
2022-11-16T16:41:41.485Z,1.53
2022-11-16T16:44:14.727Z,1.67
2022-11-16T16:46:41.151Z,1.70
2022-11-16T16:49:08.037Z,1.87
2022-11-16T16:51:34.506Z,1.77
2022-11-16T16:54:00.842Z,1.77
2022-11-16T16:56:27.339Z,2.00
2022-11-16T16:58:54.098Z,4.03
2022-11-16T17:01:20.568Z,7.60
2022-11-16T17:03:46.990Z,5.10
2022-11-16T17:06:14.086Z,4.17
2022-11-16T17:08:40.452Z,2.20
2022-11-16T17:11:06.866Z,1.60
2022-11-16T17:13:33.528Z,1.83
2022-11-16T17:16:04.361Z,1.60
2022-11-16T17:18:30.691Z,1.50
2022-11-16T17:21:03.828Z,1.80
2022-11-16T17:23:30.143Z,1.93
2022-11-16T17:25:56.611Z,1.70
2022-11-16T17:28:23.156Z,2.10
2022-11-16T17:30:49.778Z,1.77
2022-11-16T17:33:16.148Z,2.57
2022-11-16T17:35:42.655Z,1.73
2022-11-16T17:38:09.864Z,2.27
2022-11-16T17:40:36.606Z,1.60
2022-11-16T17:43:03.199Z,1.90
2022-11-16T17:45:29.598Z,2.13
2022-11-16T17:47:56.080Z,1.70
2022-11-16T17:50:22.464Z,1.90
2022-11-16T17:52:48.801Z,1.90
2022-11-16T17:55:15.246Z,1.80
2022-11-16T17:57:41.620Z,2.10
2022-11-16T18:00:08.956Z,1.70
2022-11-16T18:02:35.381Z,2.00
2022-11-16T18:05:01.746Z,2.17
2022-11-16T18:07:30.283Z,1.50
2022-11-16T18:09:56.812Z,1.93
2022-11-16T18:12:23.189Z,2.00
2022-11-16T18:15:13.459Z,1.90
2022-11-16T18:17:36.257Z,2.23
2022-11-16T18:20:04.718Z,2.03
2022-11-16T18:22:31.621Z,2.50
2022-11-16T18:24:58.013Z,2.23
2022-11-16T18:27:24.440Z,2.30
2022-11-16T18:29:50.859Z,2.03
2022-11-16T18:32:17.186Z,2.40
2022-11-16T18:34:44.044Z,2.07
2022-11-16T18:37:10.589Z,2.37
2022-11-16T18:39:36.963Z,2.93
2022-11-16T18:42:03.563Z,2.77
2022-11-16T18:44:29.957Z,2.53
2022-11-16T18:46:56.322Z,2.20
2022-11-16T18:49:22.734Z,2.23
2022-11-16T18:51:49.151Z,2.27
2022-11-16T18:54:15.607Z,2.50
2022-11-16T18:56:41.960Z,2.47
2022-11-16T18:59:08.333Z,2.53
2022-11-16T19:01:34.816Z,2.60
2022-11-16T19:04:01.599Z,2.30
2022-11-16T19:06:31.848Z,2.00
2022-11-16T19:08:59.996Z,2.20
2022-11-16T19:11:27.872Z,1.80
2022-11-16T19:13:57.074Z,2.13
2022-11-16T19:16:24.516Z,2.10
2022-11-16T19:18:50.998Z,2.00
2022-11-16T19:21:21.872Z,2.47
2022-11-16T19:23:51.445Z,2.00
2022-11-16T19:26:19.433Z,2.70
2022-11-16T19:28:47.919Z,2.43
2022-11-16T19:31:32.255Z,2.30
2022-11-16T19:34:05.029Z,2.43
2022-11-16T19:36:32.810Z,2.70
2022-11-16T19:38:59.522Z,2.13
2022-11-16T19:41:27.131Z,2.63
2022-11-16T19:43:59.717Z,2.27
2022-11-16T19:46:31.287Z,2.57
2022-11-16T19:48:58.352Z,2.60
2022-11-16T19:51:28.283Z,2.70
2022-11-16T19:53:55.243Z,2.50
2022-11-16T19:56:23.206Z,2.27
2022-11-16T19:58:50.286Z,2.30
2022-11-16T20:01:18.026Z,2.70
2022-11-16T20:03:45.955Z,3.50
2022-11-16T20:06:13.560Z,1.90
2022-11-16T20:08:41.696Z,2.13
2022-11-16T20:11:13.432Z,2.20
2022-11-16T20:13:40.164Z,2.13
2022-11-16T20:16:08.138Z,2.30
2022-11-16T20:18:34.554Z,2.20
2022-11-16T20:21:02.405Z,2.10
2022-11-16T20:23:28.933Z,2.17
2022-11-16T20:25:55.367Z,2.30
2022-11-16T20:28:21.737Z,2.30
2022-11-16T20:30:48.737Z,2.37
2022-11-16T20:33:15.200Z,2.70
2022-11-16T20:35:41.898Z,2.30
2022-11-16T20:38:08.420Z,2.13
2022-11-16T20:40:34.883Z,2.47
2022-11-16T20:43:01.456Z,2.00
2022-11-16T20:45:27.951Z,2.10
2022-11-16T20:47:54.370Z,2.30
2022-11-16T20:50:20.680Z,2.13
2022-11-16T20:52:52.444Z,2.00
2022-11-16T20:55:19.154Z,2.00
2022-11-16T20:57:45.554Z,1.80
2022-11-16T21:00:12.791Z,2.00
2022-11-16T21:02:39.251Z,2.70
2022-11-16T21:05:06.209Z,1.80
2022-11-16T21:07:32.706Z,2.07
2022-11-16T21:10:17.823Z,2.17
2022-11-16T21:13:02.693Z,2.10
2022-11-16T21:15:29.076Z,2.30
2022-11-16T21:17:55.539Z,1.97
2022-11-16T21:20:29.205Z,2.30
2022-11-16T21:22:55.657Z,2.40
2022-11-16T21:25:22.270Z,1.73
2022-11-16T21:27:48.722Z,1.80
2022-11-16T21:30:24.967Z,1.70
2022-11-16T21:32:51.286Z,1.80
2022-11-16T21:35:17.845Z,2.37
2022-11-16T21:37:44.343Z,2.13
2022-11-16T21:40:11.311Z,2.30
2022-11-16T21:42:37.648Z,1.97
2022-11-16T21:45:04.674Z,2.10
2022-11-16T21:47:31.019Z,1.90
2022-11-16T21:50:29.997Z,2.00
2022-11-16T21:52:44.500Z,2.10
2022-11-16T21:55:10.857Z,1.90
2022-11-16T21:57:37.229Z,1.73
2022-11-16T22:00:04.254Z,1.90
2022-11-16T22:02:30.564Z,1.80
2022-11-16T22:05:15.385Z,2.03
2022-11-16T22:07:42.116Z,1.83
2022-11-16T22:10:10.768Z,1.47
2022-11-16T22:12:38.058Z,1.97
2022-11-16T22:15:06.415Z,2.27
2022-11-16T22:17:33.286Z,1.80
2022-11-16T22:19:59.693Z,2.70
2022-11-16T22:22:26.139Z,1.60
2022-11-16T22:24:52.640Z,1.97
2022-11-16T22:27:19.315Z,2.20
2022-11-16T22:29:45.709Z,2.23
2022-11-16T22:32:12.045Z,2.03
2022-11-16T22:34:38.430Z,2.13
2022-11-16T22:37:04.849Z,1.73
2022-11-16T22:39:31.161Z,2.43
2022-11-16T22:41:57.757Z,1.90
2022-11-16T22:44:24.172Z,2.00
2022-11-16T22:46:52.177Z,2.03
2022-11-16T22:49:19.275Z,2.00
2022-11-16T22:51:45.984Z,1.70
2022-11-16T22:54:12.822Z,2.03
2022-11-16T22:56:39.225Z,1.90
2022-11-16T22:59:05.898Z,1.60
2022-11-16T23:01:32.721Z,2.10
2022-11-16T23:03:59.073Z,2.00
2022-11-16T23:06:25.801Z,1.93
2022-11-16T23:08:52.205Z,1.90
2022-11-16T23:11:39.907Z,1.90
2022-11-16T23:14:26.172Z,2.13
2022-11-16T23:16:52.940Z,2.07
2022-11-16T23:19:39.572Z,1.67
2022-11-16T23:22:26.327Z,1.77
2022-11-16T23:25:11.270Z,2.13
2022-11-16T23:27:50.689Z,2.20
2022-11-16T23:30:17.385Z,1.90
2022-11-16T23:32:44.016Z,2.00
2022-11-16T23:35:10.957Z,1.90
2022-11-16T23:37:56.995Z,2.17
2022-11-16T23:40:31.447Z,1.80
2022-11-16T23:43:16.468Z,2.80
2022-11-16T23:45:43.809Z,2.30
2022-11-16T23:48:12.285Z,1.90
2022-11-16T23:50:38.753Z,1.90
2022-11-16T23:53:06.671Z,2.03
2022-11-16T23:55:35.242Z,1.90
2022-11-16T23:58:01.689Z,1.80
